Data for 07/23/2013

Time Sea-Level Adjusted Pressure Absolute Pressure Temperature Relative Humidity Dew Point   
(mb) (inHg) (mb) (inHg) (C) (F) (%) (C) (F)
00:05 1020 30.12 849 25.07 19.9 67.8 28 1.1 34
00:10 1020 30.12 849 25.07 19.7 67.5 29 1.2 34.1
00:15 1020 30.12 849 25.07 19.9 67.9 28 1.1 34
00:20 1020 30.12 849 25.07 20.1 68.1 28 1.4 34.5
00:25 1020 30.12 849 25.07 20 68.1 28 1.3 34.3
00:30 1020 30.12 849 25.07 20.2 68.3 28 1.2 34.2
00:35 1020 30.12 849 25.07 20.2 68.4 28 1.3 34.4
00:40 1020 30.12 849 25.07 20.2 68.4 28 1.5 34.6
00:45 1020 30.12 849 25.07 20.3 68.5 28 1.4 34.6
00:50 1020 30.12 849 25.07 20.2 68.4 28 1.5 34.7
00:55 1020 30.12 849 25.07 20.4 68.7 28 1.6 34.9
01:00 1020 30.12 849 25.07 20.4 68.6 28 1.6 34.8
01:05 1020 30.12 849 25.07 20.3 68.5 28 1.5 34.8
01:10 1020 30.12 849 25.07 20 68.1 31 2.4 36.4
01:15 1020 30.12 849 25.07 19.2 66.6 33 2.7 36.8
01:20 1020 30.12 849 25.07 18.1 64.7 33 1.8 35.2
01:25 1020 30.12 849 25.07 17.4 63.4 34 1.5 34.7
01:30 1020 30.12 849 25.07 17.1 62.7 35 1.6 34.9
01:35 1020 30.12 849 25.07 16.8 62.3 36 1.7 35
01:40 1020 30.12 849 25.07 16.5 61.7 37 1.8 35.2
01:45 1020 30.12 849 25.07 16.4 61.6 35 1.2 34.2
01:50 1020 30.12 849 25.07 16.5 61.6 36 1.4 34.5
01:55 1020 30.12 849 25.07 16.6 61.8 36 1.4 34.5
02:00 1020 30.12 849 25.07 16.7 62.1 35 1.2 34.1
02:05 1020 30.12 849 25.07 16.7 62.1 35 1.4 34.5
02:10 1020 30.12 849 25.07 16.7 62.1 35 1.2 34.2
02:15 1020 30.12 849 25.07 16.5 61.7 36 1.4 34.5
02:20 1020 30.12 849 25.07 16.3 61.4 37 1.6 34.8
02:25 1020 30.12 849 25.07 16.8 62.2 34 0.9 33.7
02:30 1020 30.12 850 25.1 16.6 61.8 36 1.5 34.7
02:35 1020 30.12 850 25.1 16.4 61.5 35 1 33.9
02:40 1020 30.12 850 25.1 16.3 61.4 37 1.6 34.8
02:45 1021 30.15 850 25.1 16.4 61.5 35 1 33.9
02:50 1021 30.15 850 25.1 16.1 61 37 1.7 35.1
02:55 1021 30.15 850 25.1 15.6 60.1 38 1.4 34.5
03:00 1021 30.15 850 25.1 15.6 60 39 1.8 35.3
03:05 1021 30.15 850 25.1 15.8 60.5 38 1.5 34.8
03:10 1021 30.15 850 25.1 16.1 60.9 37 1.7 35
03:15 1021 30.15 850 25.1 15.3 59.6 38 1.3 34.3
03:20 1021 30.15 850 25.1 14.9 58.7 38 0.8 33.5
03:25 1021 30.15 850 25.1 14.7 58.5 38 0.8 33.4
03:30 1021 30.15 850 25.1 14.3 57.8 41 1.4 34.4
03:35 1021 30.15 850 25.1 14 57.2 40 0.7 33.3
03:40 1021 30.15 850 25.1 14.4 57.9 37 0.1 32.2
03:45 1021 30.15 850 25.1 14.5 58.1 38 0.6 33
03:50 1021 30.15 850 25.1 14.5 58.2 36 -0.3 31.5
03:55 1021 30.15 850 25.1 14.8 58.6 37 0.2 32.3
04:00 1021 30.15 850 25.1 14.7 58.4 37 0.2 32.3
04:05 1021 30.15 850 25.1 14.6 58.2 37 0.3 32.5
04:10 1021 30.15 850 25.1 14.5 58 37 0.2 32.3
04:15 1021 30.15 850 25.1 14.6 58.4 36 -0.3 31.4
04:20 1021 30.15 851 25.13 14.6 58.2 40 1.3 34.3
04:25 1021 30.15 851 25.13 13.7 56.6 43 1.4 34.5
04:30 1021 30.15 851 25.13 13.8 56.8 42 1.2 34.1
04:35 1021 30.15 851 25.13 13.6 56.5 44 1.7 35
04:40 1022 30.18 851 25.13 13.2 55.8 44 1.2 34.2
04:45 1022 30.18 851 25.13 13.3 55.9 42 0.8 33.4
04:50 1022 30.18 851 25.13 13.4 56 41 0.3 32.5
04:55 1022 30.18 851 25.13 13.4 56 41 0.5 33
05:00 1022 30.18 851 25.13 13.5 56.2 42 1 33.8
05:05 1022 30.18 851 25.13 14 57.1 43 1.7 35.1
05:10 1022 30.18 851 25.13 13.7 56.6 45 1.9 35.4
05:15 1022 30.18 851 25.13 13.7 56.7 44 1.8 35.2
05:20 1022 30.18 851 25.13 13.7 56.6 42 1.2 34.1
05:25 1022 30.18 851 25.13 14 57.2 40 0.8 33.4
05:30 1022 30.18 851 25.13 14.2 57.6 39 0.6 33.2
05:35 1022 30.18 851 25.13 14 57.3 40 0.6 33.1
05:40 1022 30.18 851 25.13 14.3 57.8 37 -0.1 31.8
05:45 1022 30.18 851 25.13 14.6 58.2 38 0.5 32.9
05:50 1022 30.18 851 25.13 14.8 58.6 37 0.2 32.3
05:55 1022 30.18 851 25.13 15.2 59.3 35 -0 32
06:00 1022 30.18 851 25.13 15.1 59.2 38 1 33.8
06:05 1022 30.18 852 25.16 15.1 59.1 38 1.1 34
06:10 1022 30.18 852 25.16 15.2 59.4 40 1.8 35.3
06:15 1022 30.18 852 25.16 15.2 59.4 39 1.5 34.7
06:20 1022 30.18 852 25.16 15.3 59.5 41 2.2 35.9
06:25 1022 30.18 852 25.16 15.3 59.5 42 2.5 36.5
06:30 1022 30.18 852 25.16 15.5 59.8 42 2.6 36.7
06:35 1022 30.18 852 25.16 15.8 60.4 41 2.6 36.6
06:40 1023 30.21 852 25.16 16.1 61 39 2.3 36.2
06:45 1023 30.21 852 25.16 16.5 61.7 40 2.8 37.1
06:50 1023 30.21 852 25.16 17 62.6 41 3.7 38.6
06:55 1023 30.21 852 25.16 17.5 63.4 36 2.3 36.2
07:00 1023 30.21 852 25.16 17.9 64.1 36 2.8 37.1
07:05 1023 30.21 852 25.16 18.1 64.6 36 2.8 37
07:10 1023 30.21 852 25.16 18.2 64.7 38 3.6 38.5
07:15 1023 30.21 852 25.16 18.8 65.8 36 3.5 38.3
07:20 1023 30.21 852 25.16 18.9 66.1 35 3.3 38
07:25 1023 30.21 852 25.16 18.9 66 35 3.1 37.6
07:30 1023 30.21 852 25.16 19.2 66.5 36 4 39.2
07:35 1023 30.21 852 25.16 19.8 67.7 34 3.6 38.4
07:40 1023 30.21 852 25.16 20.4 68.8 32 3.2 37.8
07:45 1023 30.21 852 25.16 20.8 69.4 30 2.9 37.2
07:50 1023 30.21 852 25.16 21.1 69.9 29 2.4 36.3
07:55 1023 30.21 852 25.16 22 71.6 28 3 37.4
08:00 1023 30.21 852 25.16 22.9 73.3 28 3.5 38.3
08:05 1023 30.21 852 25.16 23.3 73.9 27 3.6 38.5
08:10 1023 30.21 852 25.16 23.1 73.5 27 3.4 38.1
08:15 1023 30.21 852 25.16 23 73.4 26 2.8 37
08:20 1023 30.21 852 25.16 23.6 74.4 24 1.8 35.2
08:25 1023 30.21 852 25.16 23.8 74.9 24 2 35.6
08:30 1023 30.21 852 25.16 24.1 75.3 24 2.5 36.5
08:35 1023 30.21 852 25.16 24 75.1 25 3.2 37.8
08:40 1023 30.21 852 25.16 23.9 75.1 25 2.9 37.2
08:45 1023 30.21 852 25.16 24.2 75.5 25 3.4 38
08:50 1023 30.21 852 25.16 23.9 75.1 24 2.5 36.4
08:55 1023 30.21 852 25.16 23.5 74.4 25 2.7 36.9
09:00 1023 30.21 852 25.16 23.9 75.1 23 1.6 34.9
09:05 1023 30.21 852 25.16 24.8 76.7 22 1.7 35
09:10 1023 30.21 852 25.16 24.5 76.1 21 1.1 33.9
09:15 1023 30.21 852 25.16 24.8 76.7 22 1.6 35
09:20 1023 30.21 852 25.16 24.3 75.7 24 2.4 36.3
09:25 1023 30.21 852 25.16 24.2 75.5 21 0.8 33.5
09:30 1023 30.21 852 25.16 24.7 76.4 21 1 33.9
09:35 1023 30.21 852 25.16 25.2 77.4 22 2.5 36.4
09:40 1023 30.21 852 25.16 24.6 76.3 21 1.2 34.1
09:45 1023 30.21 852 25.16 25.4 77.8 20 0.9 33.6
09:50 1023 30.21 852 25.16 26.2 79.1 20 1.7 35
09:55 1023 30.21 852 25.16 26.5 79.7 19 1.5 34.6
10:00 1023 30.21 852 25.16 26.3 79.3 20 1.9 35.4
10:05 1023 30.21 852 25.16 26.3 79.3 21 2.4 36.2
10:10 1023 30.21 852 25.16 26.6 79.9 20 2.1 35.7
10:15 1023 30.21 852 25.16 26.5 79.6 21 2.5 36.4
10:20 1023 30.21 852 25.16 26.6 79.9 20 2.4 36.4
10:25 1023 30.21 852 25.16 26.7 80.1 20 2.2 35.9
10:30 1023 30.21 852 25.16 26.4 79.4 19 1.3 34.3
10:35 1023 30.21 852 25.16 26.7 80 19 1.7 35.1
10:40 1023 30.21 852 25.16 26.6 80 20 2.3 36.2
10:45 1023 30.21 852 25.16 26.8 80.3 20 2.4 36.3
10:50 1023 30.21 852 25.16 27.1 80.8 19 2.1 35.8
10:55 1023 30.21 852 25.16 27.4 81.4 19 2.4 36.4
11:00 1023 30.21 852 25.16 27.6 81.6 18 1.3 34.3
11:05 1023 30.21 852 25.16 27.4 81.3 18 1.4 34.5
11:10 1023 30.21 852 25.16 26.6 79.8 19 1.3 34.3
11:15 1023 30.21 852 25.16 26.9 80.5 18 1.2 34.1
11:20 1023 30.21 852 25.16 26.9 80.5 17 0.1 32.2
11:25 1023 30.21 852 25.16 27.8 82 15 -1.4 29.5
11:30 1023 30.21 852 25.16 28.1 82.6 14 -1.3 29.6
11:35 1023 30.21 852 25.16 28 82.4 14 -1.4 29.4
11:40 1023 30.21 852 25.16 27.9 82.2 14 -1.5 29.3
11:45 1023 30.21 852 25.16 26.8 80.3 14 -2.6 27.3
11:50 1023 30.21 852 25.16 27.9 82.3 14 -1.6 29.1
11:55 1023 30.21 852 25.16 28.2 82.7 13 -2.2 28
12:00 1023 30.21 852 25.16 28.2 82.8 14 -2 28.5
12:05 1023 30.21 852 25.16 28.6 83.5 13 -2.4 27.7
12:10 1023 30.21 852 25.16 29.2 84.5 13 -2.2 28.1
12:15 1023 30.21 852 25.16 29.1 84.4 13 -1.9 28.5
12:20 1023 30.21 852 25.16 28.9 84 13 -1.5 29.3
12:25 1023 30.21 852 25.16 28.9 83.9 13 -1.9 28.6
12:30 1023 30.21 852 25.16 28.6 83.4 14 -1.6 29.2
12:35 1023 30.21 852 25.16 29.1 84.4 12 -2.6 27.2
12:40 1022 30.18 852 25.16 29.1 84.4 12 -2.9 26.8
12:45 1022 30.18 852 25.16 29.6 85.2 12 -2.6 27.3
12:50 1022 30.18 852 25.16 29.5 85.1 12 -2.1 28.3
12:55 1022 30.18 852 25.16 29.6 85.4 11 -3.3 26
13:00 1022 30.18 852 25.16 29.4 84.9 11 -4.1 24.7
13:05 1022 30.18 852 25.16 29.1 84.4 11 -3.8 25.1
13:10 1022 30.18 852 25.16 29.6 85.3 11 -3.5 25.7
13:15 1022 30.18 852 25.16 29.7 85.5 11 -3.7 25.4
13:20 1022 30.18 852 25.16 29.8 85.7 10 -4.1 24.5
13:25 1022 30.18 851 25.13 29.9 85.8 10 -4.4 24.1
13:30 1022 30.18 851 25.13 29.8 85.6 9 -5.8 21.5
13:35 1022 30.18 851 25.13 29.8 85.7 9 -6.9 19.6
13:40 1022 30.18 851 25.13 29.8 85.7 9 -6 21.1
13:45 1022 30.18 851 25.13 30.1 86.2 9 -5.9 21.5
13:50 1022 30.18 851 25.13 30 86 9 -5.3 22.4
13:55 1022 30.18 851 25.13 30.1 86.3 11 -3.5 25.7
14:00 1022 30.18 851 25.13 30 86 10 -5.1 22.9
14:05 1022 30.18 851 25.13 30 85.9 10 -4.6 23.6
14:10 1022 30.18 851 25.13 29.8 85.6 11 -4 24.9
14:15 1022 30.18 851 25.13 30.4 86.6 10 -3.8 25.2
14:20 1022 30.18 851 25.13 30.6 87.1 10 -4.2 24.4
14:25 1022 30.18 851 25.13 30.7 87.3 10 -4.5 23.8
14:30 1022 30.18 851 25.13 30.4 86.6 10 -4.6 23.7
14:35 1022 30.18 851 25.13 29.7 85.4 11 -4 24.7
14:40 1022 30.18 851 25.13 29.9 85.8 11 -3.9 25
14:45 1022 30.18 851 25.13 30.2 86.3 10 -4.4 24.1
14:50 1022 30.18 851 25.13 30.1 86.2 10 -4.7 23.5
14:55 1022 30.18 851 25.13 30.4 86.8 9 -5.5 22.1
15:00 1022 30.18 851 25.13 30.6 87.1 9 -5.3 22.4
15:05 1022 30.18 851 25.13 30.6 87 9 -4.9 23.2
15:10 1022 30.18 851 25.13 30.3 86.5 10 -4.4 24.1
15:15 1022 30.18 851 25.13 30.8 87.4 10 -4.1 24.7
15:20 1022 30.18 851 25.13 30.9 87.6 10 -4.3 24.3
15:25 1022 30.18 851 25.13 30.9 87.7 9 -5 22.9
15:30 1022 30.18 851 25.13 30.6 87 9 -5.4 22.2
15:35 1021 30.15 851 25.13 30.9 87.5 9 -5 23
15:40 1021 30.15 851 25.13 30.8 87.5 10 -4.2 24.4
15:45 1021 30.15 851 25.13 30.9 87.6 9 -5.4 22.2
15:50 1021 30.15 851 25.13 30.9 87.7 9 -5.5 22.2
15:55 1021 30.15 851 25.13 31.1 88 8 -7.4 18.6
16:00 1021 30.15 850 25.1 30.9 87.7 8 -7.1 19.2
16:05 1021 30.15 850 25.1 31.3 88.3 8 -6.1 20.9
16:10 1021 30.15 850 25.1 31 87.9 9 -5.2 22.7
16:15 1021 30.15 850 25.1 31 87.7 8 -6.4 20.4
16:20 1021 30.15 850 25.1 31.5 88.8 9 -5.1 22.8
16:25 1021 30.15 850 25.1 30.8 87.5 9 -5.8 21.5
16:30 1021 30.15 850 25.1 30.9 87.5 8 -7.4 18.7
16:35 1021 30.15 850 25.1 31.1 87.9 8 -6.6 20.1
16:40 1021 30.15 850 25.1 31.1 88 9 -5.4 22.3
16:45 1021 30.15 850 25.1 31 87.7 7 -7.7 18.2
16:50 1021 30.15 850 25.1 30.7 87.2 8 -7.4 18.6
16:55 1021 30.15 850 25.1 30.5 86.9 9 -6.2 20.9
17:00 1021 30.15 850 25.1 30.3 86.5 8 -7.6 18.3
17:05 1021 30.15 850 25.1 30.7 87.3 8 -6.3 20.6
17:10 1021 30.15 850 25.1 31.5 88.7 7 -7.4 18.8
17:15 1021 30.15 850 25.1 30.8 87.4 7 -8.7 16.3
17:20 1021 30.15 850 25.1 30.1 86.3 8 -7.9 17.7
17:25 1021 30.15 850 25.1 30.9 87.7 7 -8.3 17
17:30 1021 30.15 850 25.1 31 87.9 8 -6.8 19.7
17:35 1021 30.15 850 25.1 30.7 87.3 8 -6.7 20
17:40 1021 30.15 850 25.1 31.1 87.9 8 -6.7 20
17:45 1021 30.15 850 25.1 30.3 86.5 8 -7.9 17.7
17:50 1021 30.15 850 25.1 29.9 85.7 8 -8.2 17.2
17:55 1021 30.15 850 25.1 30.1 86.2 9 -6.1 21
18:00 1021 30.15 850 25.1 30.5 86.9 8 -7.6 18.3
18:05 1021 30.15 850 25.1 30 86 8 -8.2 17.3
18:10 1021 30.15 850 25.1 30 85.9 8 -8.2 17.3
18:15 1021 30.15 850 25.1 30.2 86.4 8 -7.1 19.3
18:20 1021 30.15 850 25.1 29.6 85.2 9 -6.6 20.1
18:25 1021 30.15 850 25.1 29.1 84.4 9 -6.5 20.3
18:30 1021 30.15 850 25.1 28.9 84 8 -7.9 17.7
18:35 1021 30.15 850 25.1 28.8 83.9 9 -7 19.5
18:40 1021 30.15 850 25.1 28.8 83.8 9 -6.8 19.7
18:45 1021 30.15 850 25.1 28.7 83.6 9 -7.4 18.6
18:50 1021 30.15 850 25.1 28.6 83.5 10 -5.7 21.8
18:55 1021 30.15 850 25.1 28.5 83.2 11 -5.1 22.9
19:00 1021 30.15 850 25.1 28.3 82.9 10 -6.2 20.9
19:05 1021 30.15 850 25.1 28.2 82.8 11 -5.2 22.6
19:10 1021 30.15 850 25.1 28.1 82.6 11 -5 23
19:15 1021 30.15 850 25.1 28 82.4 11 -5.1 22.8
19:20 1021 30.15 850 25.1 28 82.3 10 -5.9 21.4
19:25 1021 30.15 850 25.1 28 82.4 9 -7.5 18.4
19:30 1021 30.15 850 25.1 28 82.5 10 -5.6 21.9
19:35 1021 30.15 850 25.1 27.7 81.8 18 1.5 34.8
19:40 1021 30.15 850 25.1 26.9 80.5 18 0.5 32.9
19:45 1021 30.15 850 25.1 26.6 79.9 21 3 37.3
19:50 1021 30.15 850 25.1 26.3 79.3 23 3.8 38.9
19:55 1021 30.15 850 25.1 25.7 78.2 24 3.6 38.5
20:00 1021 30.15 850 25.1 24.2 75.5 31 6.1 42.9
20:05 1021 30.15 850 25.1 23.3 73.9 21 -0 32
20:10 1021 30.15 851 25.13 23.9 75.1 21 0.7 33.2
20:15 1021 30.15 851 25.13 23.9 75 22 1.3 34.3
20:20 1022 30.18 851 25.13 23.6 74.5 23 1.8 35.2
20:25 1022 30.18 851 25.13 23.7 74.6 25 2.5 36.6
20:30 1022 30.18 851 25.13 23.7 74.6 26 3.2 37.8
20:35 1022 30.18 851 25.13 23.5 74.3 27 3.6 38.5
20:40 1022 30.18 851 25.13 23.5 74.2 27 3.9 39
20:45 1022 30.18 851 25.13 23.4 74.1 28 4 39.1
20:50 1022 30.18 851 25.13 23.4 74.1 28 4 39.1
20:55 1022 30.18 851 25.13 23.3 73.9 28 4 39.2
21:00 1022 30.18 851 25.13 23.2 73.7 28 3.9 39.1
21:05 1022 30.18 851 25.13 23 73.5 28 3.9 39
21:10 1022 30.18 851 25.13 23 73.4 29 4 39.2
21:15 1022 30.18 851 25.13 23 73.4 28 3.9 39.1
21:20 1022 30.18 851 25.13 22.9 73.2 29 4 39.2
21:25 1022 30.18 851 25.13 22.8 73 29 4.1 39.4
21:30 1022 30.18 851 25.13 22.8 73 29 4.2 39.6
21:35 1022 30.18 851 25.13 22.7 72.9 30 4.3 39.7
21:40 1022 30.18 851 25.13 22.7 72.9 30 4.5 40
21:45 1022 30.18 851 25.13 22.7 72.8 31 4.8 40.6
21:50 1022 30.18 851 25.13 22.5 72.4 32 5 41
21:55 1022 30.18 851 25.13 22.4 72.2 32 5.1 41.2
22:00 1022 30.18 851 25.13 22.3 72.1 33 5.3 41.5
22:05 1022 30.18 851 25.13 22.3 72.1 33 5.3 41.6
22:10 1022 30.18 851 25.13 22.2 71.9 33 5.5 41.9
22:15 1022 30.18 851 25.13 22.2 72 34 5.7 42.2
22:20 1022 30.18 851 25.13 22.3 72.1 34 5.7 42.3
22:25 1022 30.18 851 25.13 22.2 71.9 34 5.9 42.6
22:30 1022 30.18 851 25.13 22.2 71.9 34 5.9 42.6
22:35 1022 30.18 851 25.13 22.1 71.8 35 6.1 43
22:40 1022 30.18 851 25.13 22.1 71.8 35 6.1 43
22:45 1022 30.18 851 25.13 22 71.6 36 6.3 43.4
22:50 1022 30.18 851 25.13 22.1 71.8 35 6.2 43.2
22:55 1022 30.18 851 25.13 22.1 71.7 36 6.3 43.4
23:00 1022 30.18 851 25.13 22 71.6 36 6.4 43.5
23:05 1022 30.18 851 25.13 22 71.6 36 6.3 43.4
23:10 1022 30.18 851 25.13 22 71.5 36 6.4 43.6
23:15 1022 30.18 851 25.13 21.9 71.5 36 6.5 43.6
23:20 1022 30.18 851 25.13 21.7 71.1 37 6.5 43.8
23:25 1022 30.18 851 25.13 21.7 71 37 6.6 43.8
23:30 1022 30.18 851 25.13 21.6 70.8 38 6.7 44.1
23:35 1022 30.18 851 25.13 21.4 70.6 38 6.7 44
23:40 1022 30.18 851 25.13 21.4 70.6 38 6.7 44
23:45 1022 30.18 851 25.13 21.3 70.4 38 6.7 44.1
23:50 1022 30.18 851 25.13 21.3 70.3 38 6.7 44
23:55 1022 30.18 851 25.13 21.3 70.3 39 6.8 44.2
24:00 1022 30.18 851 25.13 21.2 70.2 39 6.8 44.3